Time;durP1;ratioP1;P1;durP2;ratioP2;P2;SDS_P1;SDS_P2;PMS_P1;PMS_P2;Temp;Humidity;BMP_temperature;BMP_pressure;BME280_temperature;BME280_humidity;BME280_pressure;Samples;Min_cycle;Max_cycle;Signal;HPM_P1;HPM_P2
2021/08/30 00:00:44;;;;;;;20.20;13.93;;;16.80;99.90;;;;;;5146916;27;20054;-84
2021/08/30 00:03:10;;;;;;;20.55;13.90;;;16.80;99.90;;;;;;5147162;27;20034;-84
2021/08/30 00:05:35;;;;;;;21.80;14.60;;;16.80;99.90;;;;;;5147259;27;20027;-84
2021/08/30 00:08:03;;;;;;;20.75;13.90;;;16.70;99.90;;;;;;5147221;27;20114;-86
2021/08/30 00:10:28;;;;;;;23.98;16.20;;;16.80;99.90;;;;;;5147832;27;20023;-86
2021/08/30 00:12:54;;;;;;;20.23;14.65;;;16.80;99.90;;;;;;5146732;27;20138;-84
2021/08/30 00:15:20;;;;;;;26.33;15.02;;;16.80;99.90;;;;;;5137600;27;20068;-83
2021/08/30 00:17:46;;;;;;;21.40;15.15;;;16.80;99.90;;;;;;5133414;27;20027;-83
2021/08/30 00:20:15;;;;;;;21.60;14.45;;;16.80;99.90;;;;;;5132630;27;20083;-84
2021/08/30 00:22:42;;;;;;;21.08;15.40;;;16.80;99.90;;;;;;5132977;27;20480;-84
2021/08/30 00:25:08;;;;;;;21.58;15.32;;;16.80;99.90;;;;;;5133028;27;20023;-85
2021/08/30 00:27:34;;;;;;;19.40;14.23;;;16.80;99.90;;;;;;5133079;27;20134;-84
2021/08/30 00:30:00;;;;;;;23.35;15.65;;;16.80;99.90;;;;;;5132951;27;20027;-84
2021/08/30 00:32:25;;;;;;;24.05;14.90;;;16.80;99.90;;;;;;5132903;27;20087;-84
2021/08/30 00:34:51;;;;;;;20.73;15.27;;;16.80;99.90;;;;;;5132961;27;20027;-84
2021/08/30 00:37:17;;;;;;;21.08;14.13;;;16.80;99.90;;;;;;5134380;27;20023;-84
2021/08/30 00:39:42;;;;;;;24.05;15.02;;;16.80;99.90;;;;;;5132539;27;20429;-84
2021/08/30 00:42:09;;;;;;;24.15;15.23;;;16.80;99.90;;;;;;5132667;27;20736;-83
2021/08/30 00:44:35;;;;;;;24.70;14.30;;;16.80;99.90;;;;;;5132931;27;20053;-84
2021/08/30 00:47:01;;;;;;;25.67;15.70;;;16.80;99.90;;;;;;5132680;27;20538;-85
2021/08/30 00:49:27;;;;;;;24.00;15.07;;;16.70;99.90;;;;;;5132119;27;20375;-84
2021/08/30 00:51:54;;;;;;;24.90;14.75;;;16.70;99.90;;;;;;5133726;27;20052;-85
2021/08/30 00:54:21;;;;;;;22.25;15.32;;;16.70;99.90;;;;;;5132434;27;20053;-85
2021/08/30 00:56:47;;;;;;;26.73;16.23;;;16.70;99.90;;;;;;5132479;27;20031;-82
2021/08/30 00:59:13;;;;;;;23.67;14.30;;;16.70;99.90;;;;;;5131807;27;20478;-85
2021/08/30 01:01:39;;;;;;;23.20;15.20;;;16.70;99.90;;;;;;5132276;27;20071;-84
2021/08/30 01:04:09;;;;;;;22.20;14.63;;;16.70;99.90;;;;;;5132108;27;20121;-85
2021/08/30 01:06:42;;;;;;;22.05;15.05;;;16.70;99.90;;;;;;5132355;27;20459;-85
2021/08/30 01:09:25;;;;;;;23.50;14.80;;;16.70;99.90;;;;;;5131385;27;20110;-84
2021/08/30 01:12:02;;;;;;;23.30;15.32;;;16.70;99.90;;;;;;5131985;27;20055;-84
2021/08/30 01:14:35;;;;;;;26.25;16.52;;;16.70;99.90;;;;;;5132239;27;20550;-86
2021/08/30 01:17:04;;;;;;;26.48;16.63;;;16.70;99.90;;;;;;5132237;27;20069;-84
2021/08/30 01:19:35;;;;;;;24.88;16.02;;;16.80;99.90;;;;;;5131654;27;20038;-85
2021/08/30 01:22:08;;;;;;;24.13;16.38;;;16.70;99.90;;;;;;5132035;27;20038;-84
2021/08/30 01:24:34;;;;;;;23.58;15.95;;;16.80;99.90;;;;;;5133427;27;20038;-84
2021/08/30 01:27:02;;;;;;;22.50;15.52;;;16.70;99.90;;;;;;5131894;27;20019;-85
2021/08/30 01:29:40;;;;;;;22.17;16.08;;;16.70;99.90;;;;;;5131275;27;20133;-84
2021/08/30 01:32:36;;;;;;;24.45;16.60;;;16.70;99.90;;;;;;5131670;27;20027;-84
2021/08/30 01:35:09;;;;;;;22.98;15.45;;;16.70;99.90;;;;;;5110752;27;20032;-84
2021/08/30 01:37:37;;;;;;;25.63;16.05;;;16.70;99.90;;;;;;5131929;27;20076;-85
2021/08/30 01:40:04;;;;;;;25.13;16.65;;;16.70;99.90;;;;;;5131172;27;20042;-85
2021/08/30 01:42:32;;;;;;;24.15;16.50;;;16.70;99.90;;;;;;5131298;27;20190;-84
2021/08/30 01:44:59;;;;;;;23.63;16.10;;;16.70;99.90;;;;;;5133369;27;20494;-84
2021/08/30 01:47:26;;;;;;;22.60;15.70;;;16.70;99.90;;;;;;5131627;27;20027;-84
2021/08/30 01:50:03;;;;;;;24.48;15.52;;;16.70;99.90;;;;;;5131027;27;20102;-85
2021/08/30 01:52:31;;;;;;;26.00;16.33;;;16.60;99.90;;;;;;5131235;27;20483;-85
2021/08/30 01:55:01;;;;;;;22.73;15.47;;;16.70;99.90;;;;;;5131454;27;20050;-84
2021/08/30 01:57:27;;;;;;;22.17;15.55;;;16.70;99.90;;;;;;5132785;27;20011;-84
2021/08/30 02:02:37;;;;;;;26.48;16.95;;;16.70;99.90;;;;;;5132830;27;20037;-85
2021/08/30 02:05:03;;;;;;;24.65;16.38;;;16.60;99.90;;;;;;5131372;27;20471;-84
2021/08/30 02:07:29;;;;;;;23.58;16.23;;;16.60;99.90;;;;;;5131120;27;20019;-85
2021/08/30 02:09:55;;;;;;;26.30;16.25;;;16.60;99.90;;;;;;5130742;27;20491;-84
2021/08/30 02:12:21;;;;;;;23.98;15.50;;;16.60;99.90;;;;;;5131114;27;20034;-84
2021/08/30 02:14:47;;;;;;;23.85;15.93;;;16.60;99.90;;;;;;5132360;27;20019;-84
2021/08/30 02:17:21;;;;;;;26.25;17.38;;;16.60;99.90;;;;;;5132366;27;20038;-85
2021/08/30 02:20:04;;;;;;;23.73;16.73;;;16.60;99.90;;;;;;5130418;27;20467;-84
2021/08/30 02:22:38;;;;;;;21.38;15.18;;;16.60;99.90;;;;;;5130653;27;20057;-87
2021/08/30 02:25:11;;;;;;;24.60;15.55;;;16.60;99.90;;;;;;5132353;27;20098;-87
2021/08/30 02:27:42;;;;;;;22.45;15.48;;;16.60;99.90;;;;;;5132054;27;20022;-87
2021/08/30 02:30:11;;;;;;;23.20;15.30;;;16.60;99.90;;;;;;5130465;27;20023;-84
2021/08/30 02:32:40;;;;;;;27.02;16.52;;;16.60;99.90;;;;;;5130623;27;20106;-84
2021/08/30 02:35:08;;;;;;;20.75;15.05;;;16.60;99.90;;;;;;5130668;27;20076;-84
2021/08/30 02:37:37;;;;;;;25.33;15.90;;;16.60;99.90;;;;;;5130263;27;20497;-84
2021/08/30 02:40:05;;;;;;;22.38;16.13;;;16.50;99.90;;;;;;5130043;27;20197;-85
2021/08/30 02:42:34;;;;;;;21.00;14.63;;;16.50;99.90;;;;;;5130766;27;20015;-86
2021/08/30 02:45:06;;;;;;;24.98;15.88;;;16.60;99.90;;;;;;5132450;27;20061;-86
2021/08/30 02:47:32;;;;;;;20.60;14.38;;;16.60;99.90;;;;;;5132380;27;20098;-84
2021/08/30 02:50:00;;;;;;;22.75;16.60;;;16.60;99.90;;;;;;5130342;27;20031;-83
2021/08/30 02:52:28;;;;;;;24.25;16.63;;;16.50;99.90;;;;;;5131633;27;20053;-85
2021/08/30 02:54:54;;;;;;;26.35;16.13;;;16.60;99.90;;;;;;5131358;27;20070;-83
2021/08/30 02:57:21;;;;;;;26.92;15.52;;;16.60;99.90;;;;;;5130109;27;20027;-84
2021/08/30 02:59:50;;;;;;;25.50;16.08;;;16.60;99.90;;;;;;5130182;27;20030;-84
2021/08/30 03:02:16;;;;;;;;;;;16.60;99.90;;;;;;5130692;28;20023;-84
2021/08/30 03:04:42;;;;;;;24.00;15.43;;;16.50;99.90;;;;;;5131857;27;20278;-85
2021/08/30 03:07:11;;;;;;;26.10;17.08;;;16.60;99.90;;;;;;5130182;28;20048;-85
2021/08/30 03:09:38;;;;;;;23.25;16.63;;;16.60;99.90;;;;;;5129712;28;20475;-85
2021/08/30 03:12:04;;;;;;;23.25;15.98;;;16.60;99.90;;;;;;5129826;28;20396;-85
2021/08/30 03:14:31;;;;;;;25.33;16.70;;;16.60;99.90;;;;;;5130443;28;20050;-85
2021/08/30 03:17:01;;;;;;;22.40;15.15;;;16.60;99.90;;;;;;5130369;28;20027;-85
2021/08/30 03:19:28;;;;;;;24.92;16.77;;;16.60;99.90;;;;;;5129846;28;20032;-85
2021/08/30 03:21:55;;;;;;;22.45;15.77;;;16.60;99.90;;;;;;5131017;28;20026;-85
2021/08/30 03:24:22;;;;;;;22.23;16.23;;;16.60;99.90;;;;;;5133307;27;20031;-83
2021/08/30 03:26:50;;;;;;;24.95;16.95;;;16.60;99.90;;;;;;5133497;27;20020;-82
2021/08/30 03:29:17;;;;;;;24.13;16.08;;;16.60;99.90;;;;;;5133304;27;20023;-83
2021/08/30 03:31:44;;;;;;;26.30;16.70;;;16.60;99.90;;;;;;5131800;28;20023;-83
2021/08/30 03:34:10;;;;;;;24.08;16.38;;;16.60;99.90;;;;;;5131734;28;20034;-82
2021/08/30 03:36:37;;;;;;;25.45;16.60;;;16.60;99.90;;;;;;5131616;28;20340;-83
2021/08/30 03:39:03;;;;;;;24.88;15.75;;;16.60;99.90;;;;;;5132508;27;20107;-83
2021/08/30 03:41:30;;;;;;;23.13;15.18;;;16.60;99.90;;;;;;5133342;27;20033;-82
2021/08/30 03:43:57;;;;;;;22.85;16.77;;;16.60;99.90;;;;;;5131781;28;20126;-82
2021/08/30 03:46:23;;;;;;;24.88;16.45;;;16.60;99.90;;;;;;5131653;28;20023;-84
2021/08/30 03:48:49;;;;;;;19.98;14.20;;;16.60;99.90;;;;;;5130890;27;20033;-85
2021/08/30 03:51:15;;;;;;;26.35;15.00;;;16.60;99.90;;;;;;5135918;27;20103;-83
2021/08/30 03:53:42;;;;;;;26.85;17.35;;;16.60;99.90;;;;;;5134201;27;20103;-87
2021/08/30 03:56:09;;;;;;;21.13;15.77;;;16.60;99.90;;;;;;5134435;27;20027;-84
2021/08/30 03:58:37;;;;;;;23.00;15.38;;;16.60;99.90;;;;;;5134271;27;20218;-81
2021/08/30 04:01:05;;;;;;;22.50;15.85;;;16.60;99.90;;;;;;5155020;27;20031;-82
2021/08/30 04:03:43;;;;;;;24.77;16.67;;;16.60;99.90;;;;;;5154781;27;20479;-82
2021/08/30 04:06:11;;;;;;;20.63;15.35;;;16.60;99.90;;;;;;5156656;27;20034;-82
2021/08/30 04:08:38;;;;;;;23.45;15.98;;;16.60;99.90;;;;;;5156617;27;20026;-82
2021/08/30 04:11:05;;;;;;;23.13;15.63;;;16.60;99.90;;;;;;5155890;27;20094;-83
2021/08/30 04:13:31;;;;;;;24.08;15.82;;;16.60;99.90;;;;;;5154800;27;20034;-82
2021/08/30 04:15:57;;;;;;;24.42;15.98;;;16.50;99.90;;;;;;5154700;27;20023;-85
2021/08/30 04:18:23;;;;;;;22.38;16.25;;;16.60;99.90;;;;;;5153987;27;20034;-85
2021/08/30 04:20:49;;;;;;;23.63;16.77;;;16.50;99.90;;;;;;5134700;27;20376;-83
2021/08/30 04:23:15;;;;;;;25.42;17.25;;;16.50;99.90;;;;;;5132884;27;20031;-83
2021/08/30 04:25:40;;;;;;;22.38;16.92;;;16.50;99.90;;;;;;5133422;27;20041;-83
2021/08/30 04:28:06;;;;;;;23.20;16.20;;;16.50;99.90;;;;;;5133575;27;20023;-85
2021/08/30 04:30:32;;;;;;;23.52;16.13;;;16.60;99.90;;;;;;5133352;27;20097;-85
2021/08/30 04:32:58;;;;;;;22.52;15.93;;;16.50;99.90;;;;;;5133227;27;20027;-83
2021/08/30 04:35:23;;;;;;;25.02;16.48;;;16.50;99.90;;;;;;5133153;27;20689;-85
2021/08/30 04:37:49;;;;;;;23.73;16.95;;;16.50;99.90;;;;;;5133062;27;20027;-85
2021/08/30 04:40:15;;;;;;;24.55;17.00;;;16.60;99.90;;;;;;5134378;27;20035;-85
2021/08/30 04:42:41;;;;;;;24.90;17.83;;;16.50;99.90;;;;;;5132926;27;20023;-85
2021/08/30 04:45:08;;;;;;;24.48;16.88;;;16.60;99.90;;;;;;5134308;27;20505;-85
2021/08/30 04:47:34;;;;;;;27.20;17.05;;;16.50;99.90;;;;;;5132880;27;20341;-85
2021/08/30 04:50:00;;;;;;;24.58;16.42;;;16.50;99.90;;;;;;5132390;27;20031;-86
2021/08/30 04:52:26;;;;;;;26.17;17.77;;;16.50;99.90;;;;;;5132743;27;20019;-85
2021/08/30 04:54:52;;;;;;;23.27;16.58;;;16.50;99.90;;;;;;5132886;27;20527;-89
2021/08/30 04:57:18;;;;;;;26.60;17.27;;;16.50;99.90;;;;;;5132838;27;20027;-88
2021/08/30 04:59:43;;;;;;;29.13;17.40;;;16.50;99.90;;;;;;5132956;27;20027;-90
2021/08/30 05:02:09;;;;;;;31.80;18.88;;;16.50;99.90;;;;;;5132990;27;20535;-87
2021/08/30 05:04:35;;;;;;;27.35;18.20;;;16.50;99.90;;;;;;5133366;27;20043;-86
2021/08/30 05:07:02;;;;;;;25.33;17.85;;;16.50;99.90;;;;;;5133029;27;20333;-86
2021/08/30 05:09:28;;;;;;;23.20;17.15;;;16.50;99.90;;;;;;5132198;27;20023;-85
2021/08/30 05:11:54;;;;;;;27.80;18.42;;;16.50;99.90;;;;;;5132002;27;20047;-86
2021/08/30 05:14:19;;;;;;;25.75;17.27;;;16.50;99.90;;;;;;5133660;27;20080;-85
2021/08/30 05:16:45;;;;;;;26.15;17.75;;;16.50;99.90;;;;;;5133426;27;20038;-86
2021/08/30 05:19:11;;;;;;;26.30;16.98;;;16.60;99.90;;;;;;5131950;27;20072;-86
2021/08/30 05:21:36;;;;;;;26.88;18.17;;;16.60;99.90;;;;;;5131887;27;20409;-85
2021/08/30 05:24:02;;;;;;;25.60;18.40;;;16.60;99.90;;;;;;5131685;27;20051;-85
2021/08/30 05:26:28;;;;;;;25.60;17.85;;;16.50;99.90;;;;;;5133400;27;20058;-85
2021/08/30 05:28:53;;;;;;;29.02;18.08;;;16.60;99.90;;;;;;5131528;27;20023;-86
2021/08/30 05:31:19;;;;;;;28.95;18.33;;;16.50;99.90;;;;;;5131726;27;20590;-86
2021/08/30 05:33:45;;;;;;;27.98;18.33;;;16.50;99.90;;;;;;5131873;27;20038;-85
2021/08/30 05:36:10;;;;;;;23.85;17.85;;;16.50;99.90;;;;;;5131644;27;20130;-85
2021/08/30 05:38:36;;;;;;;31.90;20.20;;;16.50;99.90;;;;;;5131757;27;20436;-85
2021/08/30 05:41:02;;;;;;;32.63;18.35;;;16.50;99.90;;;;;;5131080;27;20425;-85
2021/08/30 05:43:27;;;;;;;28.40;18.55;;;16.50;99.90;;;;;;5132633;27;20023;-86
2021/08/30 05:45:53;;;;;;;29.45;18.90;;;16.60;99.90;;;;;;5131481;27;20024;-85
2021/08/30 05:48:18;;;;;;;28.92;19.60;;;16.50;99.90;;;;;;5131361;27;20099;-85
2021/08/30 05:50:44;;;;;;;34.13;19.95;;;16.50;99.90;;;;;;5131096;27;20364;-85
2021/08/30 05:53:10;;;;;;;28.58;19.55;;;16.60;99.90;;;;;;5131273;27;20156;-85
2021/08/30 05:55:35;;;;;;;30.38;20.08;;;16.60;99.90;;;;;;5131390;27;20027;-85
2021/08/30 05:58:01;;;;;;;30.10;20.15;;;16.60;99.90;;;;;;5131251;27;20023;-85
2021/08/30 06:00:26;;;;;;;28.40;18.88;;;16.60;99.90;;;;;;5130593;27;20345;-85
2021/08/30 06:02:52;;;;;;;29.10;19.10;;;16.60;99.90;;;;;;5130781;27;20031;-85
2021/08/30 06:05:18;;;;;;;31.42;19.83;;;16.60;99.90;;;;;;5131504;27;20024;-85
2021/08/30 06:07:43;;;;;;;35.63;20.52;;;16.70;99.90;;;;;;5131706;27;20578;-85
2021/08/30 06:10:09;;;;;;;31.58;19.48;;;16.70;99.90;;;;;;5130602;27;20114;-85
2021/08/30 06:12:36;;;;;;;28.92;18.88;;;16.70;99.90;;;;;;5130212;27;20055;-85
2021/08/30 06:15:05;;;;;;;29.73;18.92;;;16.70;99.90;;;;;;5131029;27;20468;-85
2021/08/30 06:17:30;;;;;;;30.40;20.58;;;16.80;99.90;;;;;;5130893;27;20493;-85
2021/08/30 06:19:56;;;;;;;29.20;18.27;;;16.80;99.90;;;;;;5131335;27;20136;-87
2021/08/30 06:22:22;;;;;;;37.75;19.40;;;16.80;99.90;;;;;;5130974;27;20066;-87
2021/08/30 06:24:48;;;;;;;28.88;19.60;;;16.90;99.90;;;;;;5132515;27;20217;-86
2021/08/30 06:27:18;;;;;;;27.75;18.85;;;16.90;99.90;;;;;;5132957;27;20030;-86
2021/08/30 06:29:44;;;;;;;28.67;19.48;;;16.90;99.90;;;;;;5130885;27;20019;-86
2021/08/30 06:32:10;;;;;;;26.45;18.17;;;16.90;99.90;;;;;;5129791;27;20320;-87
2021/08/30 06:34:36;;;;;;;26.23;17.35;;;17.00;99.90;;;;;;5131669;27;20047;-88
2021/08/30 06:37:02;;;;;;;27.42;18.38;;;17.10;99.90;;;;;;5130375;27;20083;-87
2021/08/30 06:39:28;;;;;;;30.02;18.45;;;17.20;99.90;;;;;;5128946;27;20126;-87
2021/08/30 06:41:53;;;;;;;28.63;16.83;;;17.30;99.90;;;;;;5129865;27;20118;-87
2021/08/30 06:44:19;;;;;;;27.45;17.65;;;17.20;99.90;;;;;;5129550;27;20031;-86
2021/08/30 06:46:45;;;;;;;24.88;16.88;;;17.30;99.90;;;;;;5129356;27;20531;-85
2021/08/30 06:49:11;;;;;;;29.65;17.65;;;17.20;99.90;;;;;;5129588;27;20027;-85
2021/08/30 06:51:36;;;;;;;24.98;17.88;;;17.20;99.90;;;;;;5132197;27;20031;-86
2021/08/30 06:54:02;;;;;;;25.85;18.00;;;17.20;99.90;;;;;;5129886;27;20080;-85
2021/08/30 06:56:28;;;;;;;28.08;17.45;;;17.10;99.90;;;;;;5127655;27;20027;-85
2021/08/30 06:58:56;;;;;;;23.95;15.23;;;17.10;99.90;;;;;;5129640;27;20027;-86
2021/08/30 07:01:22;;;;;;;27.15;17.42;;;17.10;99.90;;;;;;5130699;27;20095;-85
2021/08/30 07:03:48;;;;;;;25.88;17.10;;;17.10;99.90;;;;;;5129900;28;20035;-84
2021/08/30 07:06:14;;;;;;;30.58;19.05;;;17.10;99.90;;;;;;5130585;28;20088;-86
2021/08/30 07:08:40;;;;;;;28.15;18.25;;;17.10;99.90;;;;;;5130531;28;20038;-86
2021/08/30 07:11:05;;;;;;;32.90;18.83;;;17.10;99.90;;;;;;5130090;28;20034;-86
2021/08/30 07:13:31;;;;;;;28.05;18.80;;;17.10;99.90;;;;;;5130250;28;20023;-87
2021/08/30 07:15:58;;;;;;;28.27;18.33;;;17.20;99.90;;;;;;5130784;28;20023;-86
2021/08/30 07:18:23;;;;;;;28.67;19.77;;;17.20;99.90;;;;;;5130630;28;20023;-86
2021/08/30 07:20:49;;;;;;;26.25;18.25;;;17.20;99.90;;;;;;5130639;28;20035;-83
2021/08/30 07:23:16;;;;;;;26.70;18.85;;;17.20;99.90;;;;;;5130673;28;20368;-86
2021/08/30 07:25:42;;;;;;;28.65;19.10;;;17.30;99.90;;;;;;5133197;27;20374;-88
2021/08/30 07:28:08;;;;;;;27.08;19.60;;;17.20;99.90;;;;;;5134405;27;20461;-86
2021/08/30 07:30:34;;;;;;;26.85;18.55;;;17.30;99.90;;;;;;5133695;27;20061;-86
2021/08/30 07:32:59;;;;;;;30.63;19.65;;;17.30;99.90;;;;;;5133641;27;20077;-86
2021/08/30 07:35:27;;;;;;;30.05;20.02;;;17.40;99.90;;;;;;5134164;27;20115;-86
2021/08/30 07:37:53;;;;;;;31.40;19.85;;;17.40;99.90;;;;;;5135233;27;20153;-86
2021/08/30 07:40:19;;;;;;;29.85;19.27;;;17.40;99.90;;;;;;5133735;27;20195;-85
2021/08/30 07:42:44;;;;;;;29.33;19.60;;;17.40;99.90;;;;;;5133754;27;20027;-86
2021/08/30 07:45:10;;;;;;;31.63;18.00;;;17.40;99.90;;;;;;5133900;27;20122;-86
2021/08/30 07:47:36;;;;;;;22.65;16.55;;;17.40;99.90;;;;;;5134057;27;20023;-85
2021/08/30 07:50:02;;;;;;;29.30;18.95;;;17.40;99.90;;;;;;5133780;27;20340;-86
2021/08/30 07:52:28;;;;;;;26.15;18.00;;;17.40;99.90;;;;;;5135309;27;20015;-85
2021/08/30 07:54:53;;;;;;;25.10;17.50;;;17.40;99.90;;;;;;5136943;27;20023;-84
2021/08/30 07:57:19;;;;;;;27.88;18.55;;;17.40;99.90;;;;;;5134745;27;20042;-84
2021/08/30 07:59:44;;;;;;;26.77;19.15;;;17.40;99.90;;;;;;5135261;27;20121;-85
2021/08/30 08:02:10;;;;;;;31.70;19.20;;;17.40;99.90;;;;;;5135120;27;20031;-85
2021/08/30 08:04:36;;;;;;;24.05;16.38;;;17.40;99.90;;;;;;5136498;27;20080;-85
2021/08/30 08:07:01;;;;;;;25.60;16.67;;;17.40;99.90;;;;;;5135322;27;20054;-85
2021/08/30 08:09:30;;;;;;;27.70;18.23;;;17.40;99.90;;;;;;5134140;27;20521;-84
2021/08/30 08:11:56;;;;;;;25.33;17.45;;;17.40;99.90;;;;;;5135430;27;20064;-85
2021/08/30 08:14:22;;;;;;;27.45;17.55;;;17.40;99.90;;;;;;5136712;27;20023;-84
2021/08/30 08:16:48;;;;;;;29.85;20.08;;;17.50;99.90;;;;;;5135966;27;20058;-83
2021/08/30 08:19:14;;;;;;;27.65;18.80;;;17.50;99.90;;;;;;5137621;27;20084;-84
2021/08/30 08:21:41;;;;;;;26.23;17.45;;;17.40;99.90;;;;;;5138551;27;20072;-84
2021/08/30 08:24:08;;;;;;;25.15;17.10;;;17.50;99.90;;;;;;5137717;27;20023;-84
2021/08/30 08:26:34;;;;;;;23.80;16.92;;;17.50;99.90;;;;;;5139277;27;20033;-85
2021/08/30 08:29:00;;;;;;;24.85;17.90;;;17.50;99.90;;;;;;5137253;27;20102;-84
2021/08/30 08:31:26;;;;;;;27.55;17.02;;;17.50;99.90;;;;;;5122474;27;20784;-82
2021/08/30 08:33:52;;;;;;;21.75;15.85;;;17.60;99.90;;;;;;5117457;28;20110;-81
2021/08/30 08:36:20;;;;;;;21.38;14.93;;;17.60;99.90;;;;;;5116021;28;20076;-85
2021/08/30 08:38:46;;;;;;;27.42;17.77;;;17.60;99.90;;;;;;5117744;28;20121;-82
2021/08/30 08:41:12;;;;;;;25.58;16.17;;;17.60;99.90;;;;;;5115307;28;20131;-85
2021/08/30 08:43:38;;;;;;;26.27;17.27;;;17.70;99.90;;;;;;5115526;28;20031;-85
2021/08/30 08:46:04;;;;;;;23.13;16.75;;;17.70;99.90;;;;;;5117687;28;20046;-85
2021/08/30 08:48:30;;;;;;;23.85;16.23;;;17.70;99.90;;;;;;5115941;28;20024;-85
2021/08/30 08:50:55;;;;;;;24.15;16.95;;;17.70;99.90;;;;;;5117638;28;20051;-85
2021/08/30 08:53:21;;;;;;;21.73;15.73;;;17.80;99.90;;;;;;5113313;28;20503;-86
2021/08/30 08:55:47;;;;;;;22.88;16.45;;;17.80;99.90;;;;;;5111670;28;20479;-88
2021/08/30 08:58:22;;;;;;;21.20;16.08;;;17.80;99.90;;;;;;5113193;28;20400;-86
2021/08/30 09:01:04;;;;;;;21.77;15.23;;;17.80;99.90;;;;;;5114108;28;20078;-85
2021/08/30 09:03:30;;;;;;;21.48;14.57;;;17.80;99.90;;;;;;5113854;28;20069;-85
2021/08/30 09:06:04;;;;;;;22.80;16.30;;;17.90;99.90;;;;;;5116309;28;20028;-85
2021/08/30 09:08:46;;;;;;;21.80;15.45;;;17.90;99.90;;;;;;5116495;28;20377;-85
2021/08/30 09:11:21;;;;;;;24.45;15.25;;;17.90;99.90;;;;;;5113509;28;20056;-85
2021/08/30 09:13:53;;;;;;;22.90;15.32;;;18.00;99.90;;;;;;5113749;28;20027;-82
2021/08/30 09:16:23;;;;;;;20.15;14.95;;;18.00;99.90;;;;;;5114492;28;20032;-85
2021/08/30 09:18:49;;;;;;;23.75;16.08;;;18.00;99.90;;;;;;5114590;28;20031;-85
2021/08/30 09:21:16;;;;;;;22.48;14.73;;;18.10;99.90;;;;;;5116007;28;20118;-84
2021/08/30 09:23:44;;;;;;;20.25;14.38;;;18.10;99.90;;;;;;5118331;28;20077;-85
2021/08/30 09:26:20;;;;;;;19.83;13.75;;;18.20;99.90;;;;;;5116545;28;20199;-85
2021/08/30 09:28:55;;;;;;;22.63;15.02;;;18.20;99.90;;;;;;5116174;28;20016;-85
2021/08/30 09:31:21;;;;;;;20.38;14.75;;;18.30;99.90;;;;;;5117503;28;20024;-82
2021/08/30 09:33:52;;;;;;;18.40;12.82;;;18.30;99.90;;;;;;5118453;28;20019;-82
2021/08/30 09:36:19;;;;;;;19.50;13.75;;;18.30;99.90;;;;;;5118707;28;20020;-82
2021/08/30 09:38:53;;;;;;;18.60;13.05;;;18.40;99.90;;;;;;5116560;28;20483;-82
2021/08/30 09:41:19;;;;;;;22.42;14.55;;;18.40;99.90;;;;;;5116887;28;20020;-82
2021/08/30 09:43:46;;;;;;;17.75;13.43;;;18.50;99.90;;;;;;5115564;28;20118;-84
2021/08/30 09:46:11;;;;;;;18.80;13.02;;;18.50;99.90;;;;;;5111825;28;20047;-83
2021/08/30 09:48:49;;;;;;;19.35;14.00;;;18.50;99.90;;;;;;5110447;28;20373;-83
2021/08/30 09:51:16;;;;;;;20.97;13.63;;;18.50;99.90;;;;;;5110731;28;20027;-83
2021/08/30 09:53:42;;;;;;;18.95;13.10;;;18.50;99.90;;;;;;5111342;28;20084;-83
2021/08/30 09:56:08;;;;;;;20.15;13.00;;;18.60;99.90;;;;;;5110824;28;20740;-84
2021/08/30 09:58:34;;;;;;;21.20;13.70;;;18.60;99.90;;;;;;5111928;28;20027;-84
2021/08/30 10:01:02;;;;;;;18.38;13.77;;;18.60;99.90;;;;;;5110417;28;20055;-86
2021/08/30 10:03:39;;;;;;;17.90;12.95;;;18.60;99.90;;;;;;5110526;28;20035;-86
2021/08/30 10:06:07;;;;;;;19.55;13.20;;;18.50;99.90;;;;;;5111284;28;20120;-83
2021/08/30 10:08:35;;;;;;;20.67;12.77;;;18.50;99.90;;;;;;5113905;28;20023;-85
2021/08/30 10:11:01;;;;;;;19.23;14.35;;;18.50;99.90;;;;;;5114118;28;20257;-86
2021/08/30 10:13:27;;;;;;;18.50;13.50;;;18.50;99.90;;;;;;5113227;28;20459;-85
2021/08/30 10:15:53;;;;;;;16.67;11.77;;;18.50;99.90;;;;;;5113100;28;20392;-85
2021/08/30 10:18:20;;;;;;;22.00;14.98;;;18.50;99.90;;;;;;5114403;28;20019;-84
2021/08/30 10:20:50;;;;;;;19.60;13.00;;;18.40;99.90;;;;;;5112224;28;20087;-85
2021/08/30 10:23:18;;;;;;;18.38;13.45;;;18.40;99.90;;;;;;5115997;28;20742;-85
2021/08/30 10:26:00;;;;;;;19.70;12.20;;;18.30;99.90;;;;;;5112488;28;20360;-82
2021/08/30 10:28:40;;;;;;;17.38;12.38;;;18.30;99.90;;;;;;5110677;28;20032;-82
2021/08/30 10:31:21;;;;;;;19.75;13.60;;;18.30;99.90;;;;;;5109925;28;20016;-82
2021/08/30 10:33:54;;;;;;;21.27;13.15;;;18.20;99.90;;;;;;5108312;28;20024;-83
2021/08/30 10:36:23;;;;;;;20.60;13.93;;;18.20;99.90;;;;;;5110181;28;20023;-84
2021/08/30 10:38:56;;;;;;;19.08;13.45;;;18.20;99.90;;;;;;5108277;28;20631;-82
2021/08/30 10:41:28;;;;;;;19.88;13.35;;;18.20;99.90;;;;;;5108930;28;20053;-82
2021/08/30 10:44:14;;;;;;;17.60;12.80;;;18.30;99.90;;;;;;5108831;28;20023;-83
2021/08/30 10:46:53;;;;;;;18.67;12.55;;;18.40;99.90;;;;;;5110587;28;20020;-82
2021/08/30 10:49:30;;;;;;;18.27;12.45;;;18.40;99.90;;;;;;5111338;28;20031;-83
2021/08/30 10:52:15;;;;;;;18.40;12.32;;;18.50;99.90;;;;;;5110070;28;20023;-82
2021/08/30 10:54:55;;;;;;;16.85;12.32;;;18.50;99.90;;;;;;5110202;28;20085;-86
2021/08/30 10:57:38;;;;;;;18.75;12.35;;;18.60;99.90;;;;;;5109804;28;20019;-85
2021/08/30 11:00:09;;;;;;;16.10;11.95;;;18.50;99.90;;;;;;5119736;27;20031;-85
2021/08/30 11:02:39;;;;;;;17.67;12.57;;;18.60;99.90;;;;;;5130537;27;20054;-85
2021/08/30 11:05:07;;;;;;;19.98;12.25;;;18.60;99.90;;;;;;5130557;28;20055;-85
2021/08/30 11:07:34;;;;;;;19.20;13.17;;;18.70;99.90;;;;;;5131295;28;20395;-83
2021/08/30 11:10:01;;;;;;;16.55;12.57;;;18.70;99.90;;;;;;5130269;28;20155;-83
2021/08/30 11:12:26;;;;;;;19.60;13.48;;;18.80;99.90;;;;;;5130613;28;20055;-86
2021/08/30 11:14:57;;;;;;;15.07;11.93;;;18.90;99.90;;;;;;5129100;28;20050;-86
2021/08/30 11:17:27;;;;;;;17.98;12.75;;;18.90;99.90;;;;;;5129873;27;20402;-86
2021/08/30 11:19:58;;;;;;;17.85;12.57;;;19.00;99.90;;;;;;5128046;27;20527;-83
2021/08/30 11:22:24;;;;;;;17.65;12.23;;;19.10;99.90;;;;;;5128572;28;20058;-86
2021/08/30 11:24:50;;;;;;;15.80;11.60;;;19.10;99.90;;;;;;5129679;27;20102;-86
2021/08/30 11:27:20;;;;;;;15.85;10.98;;;19.20;99.90;;;;;;5127430;28;20440;-85
2021/08/30 11:29:50;;;;;;;15.02;10.98;;;19.30;99.90;;;;;;5129544;28;20031;-86
2021/08/30 11:32:19;;;;;;;15.30;11.00;;;19.30;99.90;;;;;;5129833;28;20083;-86
2021/08/30 11:34:47;;;;;;;14.27;11.10;;;19.30;99.90;;;;;;5131210;27;20099;-86
2021/08/30 11:37:15;;;;;;;15.50;10.68;;;19.30;99.90;;;;;;5131470;27;20057;-86
2021/08/30 11:39:46;;;;;;;16.25;10.27;;;19.30;99.90;;;;;;5130612;28;20025;-86
2021/08/30 11:42:15;;;;;;;14.32;9.35;;;19.30;99.90;;;;;;5130726;27;20023;-86
2021/08/30 11:44:42;;;;;;;15.02;10.48;;;19.30;99.90;;;;;;5131206;27;20085;-86
2021/08/30 11:47:17;;;;;;;13.35;9.68;;;19.40;99.90;;;;;;5129644;28;20151;-86
2021/08/30 11:49:45;;;;;;;16.23;11.13;;;19.30;99.90;;;;;;5129041;28;20508;-83
2021/08/30 11:52:12;;;;;;;15.10;10.32;;;19.30;99.90;;;;;;5129513;28;20069;-84
2021/08/30 11:54:54;;;;;;;16.83;10.45;;;19.30;99.90;;;;;;5130775;27;20046;-84
2021/08/30 11:57:19;;;;;;;12.55;9.75;;;19.30;99.90;;;;;;5129355;28;20042;-84
2021/08/30 11:59:53;;;;;;;15.98;10.38;;;19.30;99.90;;;;;;5129464;28;20028;-86
2021/08/30 12:02:20;;;;;;;14.73;10.38;;;19.20;99.90;;;;;;5129679;28;20019;-85
2021/08/30 12:04:46;;;;;;;14.00;10.38;;;19.20;99.90;;;;;;5130005;28;20035;-82
2021/08/30 12:07:14;;;;;;;12.40;9.82;;;19.20;99.90;;;;;;5133499;28;20023;-81
2021/08/30 12:09:52;;;;;;;13.10;9.95;;;19.20;99.90;;;;;;5132697;27;20023;-84
2021/08/30 12:12:33;;;;;;;15.55;10.63;;;19.30;99.90;;;;;;5136245;27;20023;-84
2021/08/30 12:15:06;;;;;;;14.07;10.18;;;19.30;99.90;;;;;;5133330;27;20126;-86
2021/08/30 12:17:43;;;;;;;12.55;9.73;;;19.30;99.90;;;;;;5133151;27;20076;-86
2021/08/30 12:20:14;;;;;;;15.32;9.93;;;19.40;99.90;;;;;;5133637;27;20027;-83
2021/08/30 12:22:52;;;;;;;13.60;10.48;;;19.40;99.90;;;;;;5134037;27;20045;-83
2021/08/30 12:25:29;;;;;;;11.52;9.38;;;19.50;99.90;;;;;;5132870;27;20080;-83
2021/08/30 12:27:56;;;;;;;18.10;9.60;;;19.50;99.90;;;;;;5133842;27;20029;-83
2021/08/30 12:30:25;;;;;;;14.35;9.77;;;19.60;99.90;;;;;;5132430;27;20429;-83
2021/08/30 12:32:50;;;;;;;;;;;19.70;99.90;;;;;;5134583;27;20126;-83
2021/08/30 12:35:20;;;;;;;12.35;9.55;;;19.80;99.90;;;;;;5134804;27;20367;-82